Time;durP1;ratioP1;P1;durP2;ratioP2;P2;SDS_P1;SDS_P2;PMS_P1;PMS_P2;Temp;Humidity;BMP_temperature;BMP_pressure;BME280_temperature;BME280_humidity;BME280_pressure;Samples;Min_cycle;Max_cycle;Signal;HPM_P1;HPM_P2
2022/09/24 00:01:21;;;;;;;4.1;3.1;;;;;;;;;;;;;
2022/09/24 00:03:46;;;;;;;4.5;3.4;;;;;;;;;;;;;
2022/09/24 00:06:13;;;;;;;8;3.9;;;;;;;;;;;;;
2022/09/24 00:08:38;;;;;;;5.1;3.3;;;;;;;;;;;;;
2022/09/24 00:11:04;;;;;;;4.3;3.3;;;;;;;;;;;;;
2022/09/24 00:13:29;;;;;;;5.1;3.4;;;;;;;;;;;;;
2022/09/24 00:15:54;;;;;;;4.2;3.2;;;;;;;;;;;;;
2022/09/24 00:18:21;;;;;;;4.7;3.5;;;;;;;;;;;;;
2022/09/24 00:20:46;;;;;;;4.8;3.6;;;;;;;;;;;;;
2022/09/24 00:23:11;;;;;;;4.5;3.3;;;;;;;;;;;;;
2022/09/24 00:28:01;;;;;;;4.1;3.5;;;;;;;;;;;;;
2022/09/24 00:30:29;;;;;;;3.6;3.1;;;;;;;;;;;;;
2022/09/24 00:32:55;;;;;;;4.9;3.2;;;;;;;;;;;;;
2022/09/24 00:35:20;;;;;;;3.4;3.1;;;;;;;;;;;;;
2022/09/24 00:37:45;;;;;;;3.4;3.1;;;;;;;;;;;;;
2022/09/24 00:40:17;;;;;;;4;3;;;;;;;;;;;;;
2022/09/24 00:42:43;;;;;;;5.9;2.7;;;;;;;;;;;;;
2022/09/24 00:45:08;;;;;;;5.4;3.1;;;;;;;;;;;;;
2022/09/24 00:47:34;;;;;;;4;2.8;;;;;;;;;;;;;
2022/09/24 00:49:59;;;;;;;3.3;2.8;;;;;;;;;;;;;
2022/09/24 00:52:25;;;;;;;4.2;3.1;;;;;;;;;;;;;
2022/09/24 00:54:50;;;;;;;3;2.6;;;;;;;;;;;;;
2022/09/24 00:57:16;;;;;;;3;2.7;;;;;;;;;;;;;
2022/09/24 00:59:41;;;;;;;3.6;2.3;;;;;;;;;;;;;
2022/09/24 01:02:08;;;;;;;4.5;2.4;;;;;;;;;;;;;
2022/09/24 01:04:33;;;;;;;3.3;3;;;;;;;;;;;;;
2022/09/24 01:06:59;;;;;;;3.2;2.5;;;;;;;;;;;;;
2022/09/24 01:09:24;;;;;;;6.2;3;;;;;;;;;;;;;
2022/09/24 01:11:50;;;;;;;3;2.5;;;;;;;;;;;;;
2022/09/24 01:14:16;;;;;;;4.5;3.2;;;;;;;;;;;;;
2022/09/24 01:16:41;;;;;;;4.6;3.4;;;;;;;;;;;;;
2022/09/24 01:19:06;;;;;;;3.3;3;;;;;;;;;;;;;
2022/09/24 01:21:31;;;;;;;4.9;3.1;;;;;;;;;;;;;
2022/09/24 01:23:57;;;;;;;3.8;2.7;;;;;;;;;;;;;
2022/09/24 01:26:22;;;;;;;3.5;2.9;;;;;;;;;;;;;
2022/09/24 01:28:51;;;;;;;3.9;2.8;;;;;;;;;;;;;
2022/09/24 01:31:13;;;;;;;4.3;2.9;;;;;;;;;;;;;
2022/09/24 01:33:38;;;;;;;4.3;2.7;;;;;;;;;;;;;
2022/09/24 01:36:07;;;;;;;3.2;2.9;;;;;;;;;;;;;
2022/09/24 01:38:28;;;;;;;5;2.9;;;;;;;;;;;;;
2022/09/24 01:40:53;;;;;;;5;2.7;;;;;;;;;;;;;
2022/09/24 01:43:18;;;;;;;3.4;2.8;;;;;;;;;;;;;
2022/09/24 01:45:44;;;;;;;3.2;2.9;;;;;;;;;;;;;
2022/09/24 01:48:09;;;;;;;3.3;2.9;;;;;;;;;;;;;
2022/09/24 01:50:35;;;;;;;4.2;2.8;;;;;;;;;;;;;
2022/09/24 01:53:00;;;;;;;5.3;2.7;;;;;;;;;;;;;
2022/09/24 01:55:26;;;;;;;4.1;2.8;;;;;;;;;;;;;
2022/09/24 01:57:51;;;;;;;4;2.8;;;;;;;;;;;;;
2022/09/24 02:00:16;;;;;;;3.3;2.7;;;;;;;;;;;;;
2022/09/24 02:02:44;;;;;;;3.6;2.8;;;;;;;;;;;;;
2022/09/24 02:05:07;;;;;;;4.3;2.9;;;;;;;;;;;;;
2022/09/24 02:07:34;;;;;;;4.1;3;;;;;;;;;;;;;
2022/09/24 02:10:00;;;;;;;3.1;2.8;;;;;;;;;;;;;
2022/09/24 02:12:29;;;;;;;2.6;2.4;;;;;;;;;;;;;
2022/09/24 02:14:57;;;;;;;3.9;2.6;;;;;;;;;;;;;
2022/09/24 02:17:22;;;;;;;3.9;2.4;;;;;;;;;;;;;
2022/09/24 02:19:50;;;;;;;3;2.5;;;;;;;;;;;;;
2022/09/24 02:22:15;;;;;;;2.4;2.2;;;;;;;;;;;;;
2022/09/24 02:24:43;;;;;;;4.3;2.5;;;;;;;;;;;;;
2022/09/24 02:27:09;;;;;;;3.3;2.8;;;;;;;;;;;;;
2022/09/24 02:29:34;;;;;;;2.6;2.4;;;;;;;;;;;;;
2022/09/24 02:31:59;;;;;;;3.8;2.6;;;;;;;;;;;;;
2022/09/24 02:34:25;;;;;;;4.2;2.6;;;;;;;;;;;;;
2022/09/24 02:36:50;;;;;;;3.3;2.6;;;;;;;;;;;;;
2022/09/24 02:39:17;;;;;;;3.6;2.6;;;;;;;;;;;;;
2022/09/24 02:41:41;;;;;;;3.9;2.3;;;;;;;;;;;;;
2022/09/24 02:44:09;;;;;;;3;2.6;;;;;;;;;;;;;
2022/09/24 02:46:34;;;;;;;4.1;2.6;;;;;;;;;;;;;
2022/09/24 02:48:59;;;;;;;5.7;2.5;;;;;;;;;;;;;
2022/09/24 02:51:24;;;;;;;3;2.7;;;;;;;;;;;;;
2022/09/24 02:53:50;;;;;;;4.5;2.7;;;;;;;;;;;;;
2022/09/24 02:56:15;;;;;;;2.6;2.4;;;;;;;;;;;;;
2022/09/24 02:58:42;;;;;;;4.5;2.7;;;;;;;;;;;;;
2022/09/24 03:01:07;;;;;;;3.7;2.2;;;;;;;;;;;;;
2022/09/24 03:03:32;;;;;;;2.8;2.2;;;;;;;;;;;;;
2022/09/24 03:05:58;;;;;;;3.3;2.6;;;;;;;;;;;;;
2022/09/24 03:08:24;;;;;;;3.4;2.3;;;;;;;;;;;;;
2022/09/24 03:10:50;;;;;;;3.2;2.6;;;;;;;;;;;;;
2022/09/24 03:13:14;;;;;;;2.6;2.3;;;;;;;;;;;;;
2022/09/24 03:15:41;;;;;;;3.2;2.1;;;;;;;;;;;;;
2022/09/24 03:18:06;;;;;;;2.6;2.3;;;;;;;;;;;;;
2022/09/24 03:20:32;;;;;;;5;2.5;;;;;;;;;;;;;
2022/09/24 03:22:57;;;;;;;5.3;3;;;;;;;;;;;;;
2022/09/24 03:25:24;;;;;;;5.1;2.7;;;;;;;;;;;;;
2022/09/24 03:27:48;;;;;;;5.9;2.9;;;;;;;;;;;;;
2022/09/24 03:32:41;;;;;;;4.3;2.5;;;;;;;;;;;;;
2022/09/24 03:35:11;;;;;;;3.8;2.6;;;;;;;;;;;;;
2022/09/24 03:37:35;;;;;;;3.2;2.5;;;;;;;;;;;;;
2022/09/24 03:40:01;;;;;;;2.9;2.3;;;;;;;;;;;;;
2022/09/24 03:42:26;;;;;;;2.9;2.2;;;;;;;;;;;;;
2022/09/24 03:44:53;;;;;;;3.1;2.4;;;;;;;;;;;;;
2022/09/24 03:47:17;;;;;;;3.2;2.3;;;;;;;;;;;;;
2022/09/24 03:49:43;;;;;;;9.9;6.1;;;;;;;;;;;;;
2022/09/24 03:52:08;;;;;;;5.9;3.8;;;;;;;;;;;;;
2022/09/24 03:54:33;;;;;;;4.2;2.5;;;;;;;;;;;;;
2022/09/24 03:56:58;;;;;;;5.7;3;;;;;;;;;;;;;
2022/09/24 03:59:24;;;;;;;7.5;3.4;;;;;;;;;;;;;
2022/09/24 04:02:39;;;;;;;4.8;3.1;;;;;;;10.75;86.37305;934.5305;;;;
2022/09/24 04:05:02;;;;;;;5.1;3.1;;;;;;;10.62;87.09961;934.5413;;;;
2022/09/24 04:07:33;;;;;;;5.1;3.2;;;;;;;10.69;86.79297;934.5598;;;;
2022/09/24 04:10:01;;;;;;;4.1;2.9;;;;;;;10.63;87.10156;934.6074;;;;
2022/09/24 04:12:30;;;;;;;3.5;2.7;;;;;;;10.54;87.49316;934.5591;;;;
2022/09/24 04:15:01;;;;;;;7.1;3.3;;;;;;;10.54;87.6416;934.5821;;;;
2022/09/24 04:17:31;;;;;;;3.3;2.8;;;;;;;10.49;88.15723;934.5517;;;;
2022/09/24 04:20:02;;;;;;;6.2;3;;;;;;;10.53;87.96094;934.4492;;;;
2022/09/24 04:22:27;;;;;;;3.1;2.8;;;;;;;10.44;88.10254;934.4927;;;;
2022/09/24 04:24:52;;;;;;;3.6;2.8;;;;;;;10.47;88.12891;934.5302;;;;
2022/09/24 04:27:17;;;;;;;3.1;2.8;;;;;;;10.39;88.25098;934.4428;;;;
2022/09/24 04:29:45;;;;;;;3.7;3.4;;;;;;;10.42;88.24512;934.5316;;;;
2022/09/24 04:32:10;;;;;;;4.8;3.4;;;;;;;10.48;87.84668;934.4578;;;;
2022/09/24 04:34:37;;;;;;;3.5;3;;;;;;;10.58;87.25293;934.3427;;;;
2022/09/24 04:37:02;;;;;;;4.3;3.2;;;;;;;10.51;87.2832;934.434;;;;
2022/09/24 04:39:30;;;;;;;6;3.7;;;;;;;10.25;88.69141;934.408;;;;
2022/09/24 04:41:55;;;;;;;5.6;3.4;;;;;;;10.05;89.87109;934.3716;;;;
2022/09/24 04:44:24;;;;;;;5.5;3.3;;;;;;;10.11;89.86914;934.3591;;;;
2022/09/24 04:46:49;;;;;;;4.1;3;;;;;;;10.25;89.20313;934.3531;;;;
2022/09/24 04:49:19;;;;;;;4.1;2.9;;;;;;;10.19;89.33008;934.3579;;;;
2022/09/24 04:51:49;;;;;;;3.1;2.5;;;;;;;9.98;90.72266;934.3455;;;;
2022/09/24 04:54:18;;;;;;;4;2.6;;;;;;;10.15;89.98242;934.3585;;;;
2022/09/24 04:56:43;;;;;;;3.7;2.5;;;;;;;10.31;89.02148;934.3526;;;;
2022/09/24 04:59:10;;;;;;;4;2.4;;;;;;;10.44;88.33105;934.3884;;;;
2022/09/24 05:01:36;;;;;;;3.4;2.2;;;;;;;10.47;88.34766;934.3535;;;;
2022/09/24 05:04:05;;;;;;;3.8;2.5;;;;;;;10.44;88.36523;934.2938;;;;
2022/09/24 05:06:35;;;;;;;6.4;3.6;;;;;;;10.22;89.3916;934.3514;;;;
2022/09/24 05:08:58;;;;;;;5;3.5;;;;;;;10.26;89.26367;934.3237;;;;
2022/09/24 05:11:27;;;;;;;6.7;3.9;;;;;;;10.29;89.30176;934.3533;;;;
2022/09/24 05:13:53;;;;;;;6.2;4;;;;;;;10.2;89.58105;934.2417;;;;
2022/09/24 05:16:24;;;;;;;5.5;2.9;;;;;;;10.2;89.43359;934.2942;;;;
2022/09/24 05:18:49;;;;;;;3.8;2.9;;;;;;;10.27;90.12305;934.257;;;;
2022/09/24 05:21:15;;;;;;;2.8;2.5;;;;;;;10.29;89.56641;934.3517;;;;
2022/09/24 05:23:40;;;;;;;4.8;2.4;;;;;;;10.39;89.08398;934.3712;;;;
2022/09/24 05:28:32;;;;;;;13.5;10.4;;;;;;;10.49;88.7168;934.2477;;;;
2022/09/24 05:30:57;;;;;;;18.4;14.2;;;;;;;10.66;88.21484;934.2047;;;;
2022/09/24 05:33:25;;;;;;;7;5.5;;;;;;;10.77;87.74414;934.1953;;;;
2022/09/24 05:35:50;;;;;;;4.4;2.4;;;;;;;10.72;87.67969;934.2852;;;;
2022/09/24 05:38:20;;;;;;;5.3;2.8;;;;;;;10.81;87.20703;934.3805;;;;
2022/09/24 05:40:51;;;;;;;4.4;3.1;;;;;;;10.67;88.55957;934.3312;;;;
2022/09/24 05:43:26;;;;;;;5.2;2.6;;;;;;;10.83;87.21973;934.3558;;;;
2022/09/24 05:45:49;;;;;;;4.1;2.9;;;;;;;10.89;86.80957;934.4084;;;;
2022/09/24 05:48:21;;;;;;;3.4;2.8;;;;;;;10.94;86.64941;934.4348;;;;
2022/09/24 05:50:54;;;;;;;4.8;2.8;;;;;;;10.93;86.51074;934.4547;;;;
2022/09/24 05:53:17;;;;;;;3.8;2.7;;;;;;;11.11;86.09082;934.4553;;;;
2022/09/24 05:55:46;;;;;;;3.1;2.5;;;;;;;11.3;85.60059;934.5441;;;;
2022/09/24 05:58:15;;;;;;;3.4;2.5;;;;;;;11.44;85.43457;934.6306;;;;
2022/09/24 06:00:40;;;;;;;6.9;3.5;;;;;;;11.27;85.43555;934.6016;;;;
2022/09/24 06:03:07;;;;;;;4.3;2.7;;;;;;;10.97;86.92871;934.4779;;;;
2022/09/24 06:05:34;;;;;;;5.6;3.2;;;;;;;10.96;88.2207;934.5217;;;;
2022/09/24 06:08:02;;;;;;;5.7;2.9;;;;;;;10.94;87.87207;934.4563;;;;
2022/09/24 06:10:27;;;;;;;6.1;3.4;;;;;;;10.89;87.1084;934.5352;;;;
2022/09/24 06:12:57;;;;;;;8.1;4.8;;;;;;;10.76;87.67578;934.5266;;;;
2022/09/24 06:15:23;;;;;;;8.1;4.9;;;;;;;10.89;87.29004;934.449;;;;
2022/09/24 06:17:47;;;;;;;7.1;4.3;;;;;;;11.07;86.57129;934.5173;;;;
2022/09/24 06:20:12;;;;;;;5.6;3.4;;;;;;;11.12;86.18262;934.4537;;;;
2022/09/24 06:22:40;;;;;;;5.9;3.6;;;;;;;11.27;85.69824;934.4844;;;;
2022/09/24 06:25:05;;;;;;;5.6;4;;;;;;;11.51;84.86328;934.4551;;;;
2022/09/24 06:27:31;;;;;;;7.6;4.3;;;;;;;11.58;84.08789;934.3625;;;;
2022/09/24 06:29:56;;;;;;;8.2;4.5;;;;;;;11.69;84.06543;934.3668;;;;
2022/09/24 06:32:22;;;;;;;6.2;3.1;;;;;;;11.83;83.4043;934.3521;;;;
2022/09/24 06:34:49;;;;;;;4.8;3;;;;;;;11.95;83.3125;934.394;;;;
2022/09/24 06:37:14;;;;;;;3.8;2.9;;;;;;;11.94;83.04492;934.4108;;;;
2022/09/24 06:39:41;;;;;;;4.9;2.8;;;;;;;12.09;82.7207;934.4283;;;;
2022/09/24 06:42:06;;;;;;;3.1;2.7;;;;;;;12.05;82.33398;934.4539;;;;
2022/09/24 06:44:33;;;;;;;3.2;2.4;;;;;;;12.11;81.39551;934.4378;;;;
2022/09/24 06:47:01;;;;;;;4.7;2.6;;;;;;;12.16;81.43848;934.4249;;;;
2022/09/24 06:49:33;;;;;;;3.5;2.4;;;;;;;12.27;81.32227;934.4656;;;;
2022/09/24 06:51:58;;;;;;;3.8;2.5;;;;;;;12.38;80.44824;934.4467;;;;
2022/09/24 06:54:27;;;;;;;3.2;2.4;;;;;;;12.43;79.76758;934.4207;;;;
2022/09/24 06:56:52;;;;;;;3.4;2.5;;;;;;;12.45;80.56348;934.4333;;;;
2022/09/24 06:59:19;;;;;;;3.9;2.4;;;;;;;12.55;79.6875;934.3961;;;;
2022/09/24 07:01:44;;;;;;;3.7;2.5;;;;;;;12.63;79.6123;934.4183;;;;
2022/09/24 07:04:10;;;;;;;3.8;2.6;;;;;;;12.68;79.37793;934.4118;;;;
2022/09/24 07:07:31;;;;;;;4.5;2.4;;;;;;;12.84;78.81055;934.416;;;;
2022/09/24 07:09:00;;;;;;;6.1;2.5;;;;;;;12.85;78.28516;934.4391;;;;
2022/09/24 07:11:27;;;;;;;4.3;2.2;;;;;;;12.92;78.19336;934.5019;;;;
2022/09/24 07:13:55;;;;;;;2.7;2.2;;;;;;;12.98;78.51465;934.5558;;;;
2022/09/24 07:16:20;;;;;;;2.5;2.2;;;;;;;12.94;79.05762;934.5009;;;;
2022/09/24 07:18:46;;;;;;;2.3;1.9;;;;;;;13.05;78.45898;934.4734;;;;
2022/09/24 07:21:11;;;;;;;4.7;2.3;;;;;;;13.15;78.70703;934.4975;;;;
2022/09/24 07:23:36;;;;;;;4.4;2.6;;;;;;;13.26;77.93359;934.5317;;;;
2022/09/24 07:26:03;;;;;;;7.4;4.6;;;;;;;13.52;75.8291;934.5229;;;;
2022/09/24 07:28:28;;;;;;;8.2;3.9;;;;;;;13.55;75.30664;934.4722;;;;
2022/09/24 07:30:55;;;;;;;3.4;2.7;;;;;;;13.79;75.56738;934.4056;;;;
2022/09/24 07:33:20;;;;;;;4.3;3;;;;;;;14.12;73.85059;934.4207;;;;
2022/09/24 07:35:47;;;;;;;4.2;2.9;;;;;;;14.39;72.18066;934.4203;;;;
2022/09/24 07:38:12;;;;;;;3.7;2.9;;;;;;;14.58;70.5752;934.4203;;;;
2022/09/24 07:40:43;;;;;;;4.3;2.7;;;;;;;14.8;70.70215;934.4203;;;;
2022/09/24 07:43:13;;;;;;;4.2;2.7;;;;;;;14.44;70.2998;934.4339;;;;
2022/09/24 07:45:46;;;;;;;4.7;3;;;;;;;14.73;69.83887;934.4324;;;;
2022/09/24 07:48:16;;;;;;;4.2;3;;;;;;;14.87;68.63867;934.4509;;;;
2022/09/24 07:50:41;;;;;;;3.8;3;;;;;;;15.04;67.66211;934.4008;;;;
2022/09/24 07:53:06;;;;;;;4.2;2.9;;;;;;;14.95;68.0625;934.3641;;;;
2022/09/24 07:55:32;;;;;;;3.7;2.6;;;;;;;15.01;68.28027;934.299;;;;
2022/09/24 07:58:02;;;;;;;5.4;2.7;;;;;;;15.43;66.47461;934.2584;;;;
2022/09/24 08:00:33;;;;;;;4.2;2.3;;;;;;;15.89;66.91504;934.2919;;;;
2022/09/24 08:02:58;;;;;;;2.3;2.1;;;;;;;16.25;65.74316;934.2667;;;;
2022/09/24 08:05:24;;;;;;;3.2;1.9;;;;;;;16.28;62.87891;934.2958;;;;
2022/09/24 08:07:49;;;;;;;2.6;1.7;;;;;;;16.19;62.64551;934.3357;;;;
2022/09/24 08:10:19;;;;;;;2.5;2;;;;;;;16.19;63.0625;934.4314;;;;
2022/09/24 08:12:45;;;;;;;3.5;2;;;;;;;16.06;62.13086;934.4097;;;;
2022/09/24 08:15:12;;;;;;;3.1;2.1;;;;;;;16.03;62.79688;934.4166;;;;
2022/09/24 08:17:37;;;;;;;3.1;2;;;;;;;16.09;61.86816;934.4011;;;;
2022/09/24 08:20:04;;;;;;;2;1.6;;;;;;;16.18;62.42578;934.3929;;;;
2022/09/24 08:22:30;;;;;;;2.4;2.1;;;;;;;16.1;60.85352;934.3453;;;;
2022/09/24 08:24:59;;;;;;;2.6;1.7;;;;;;;16.14;60.83496;934.3326;;;;
2022/09/24 08:27:24;;;;;;;2.1;1.9;;;;;;;16.28;61.15625;934.3472;;;;
2022/09/24 08:29:51;;;;;;;2.2;1.8;;;;;;;16.39;59.95605;934.2936;;;;
2022/09/24 08:32:16;;;;;;;2.7;1.7;;;;;;;16.47;60.32422;934.2555;;;;
2022/09/24 08:34:42;;;;;;;2.2;1.7;;;;;;;16.64;60.5459;934.2941;;;;
2022/09/24 08:37:07;;;;;;;2.8;2;;;;;;;16.8;58.55176;934.3273;;;;
2022/09/24 08:39:36;;;;;;;3;1.7;;;;;;;16.95;59.46484;934.2971;;;;
2022/09/24 08:42:04;;;;;;;3.9;2.2;;;;;;;16.75;58.07031;934.3494;;;;
2022/09/24 08:49:21;;;;;;;2.9;2.4;;;;;;;16.99;59.96777;934.3719;;;;
2022/09/24 08:51:46;;;;;;;3.5;2.1;;;;;;;16.52;59.97363;934.3895;;;;
2022/09/24 08:54:16;;;;;;;2.9;2;;;;;;;16.55;60.52148;934.3045;;;;
2022/09/24 08:56:42;;;;;;;2.4;2;;;;;;;16.62;61.15625;934.4199;;;;
2022/09/24 08:59:13;;;;;;;3.1;2.1;;;;;;;16.56;60.39453;934.4056;;;;
2022/09/24 09:01:38;;;;;;;4.6;2.1;;;;;;;16.74;62.27441;934.384;;;;
2022/09/24 09:04:03;;;;;;;3.1;2.4;;;;;;;16.37;64.01563;934.3326;;;;
2022/09/24 09:06:31;;;;;;;2.2;2;;;;;;;16.48;62.97656;934.3792;;;;
2022/09/24 09:08:56;;;;;;;2.8;1.9;;;;;;;16.79;62.42969;934.3542;;;;
2022/09/24 09:11:23;;;;;;;3;2;;;;;;;16.87;62.34961;934.45;;;;
2022/09/24 09:13:48;;;;;;;3.4;2.3;;;;;;;16.98;62.0293;934.517;;;;
2022/09/24 09:16:21;;;;;;;3.4;2;;;;;;;16.79;63.85547;934.5029;;;;
2022/09/24 09:18:46;;;;;;;4.6;2.1;;;;;;;17.19;63.95996;934.5198;;;;
2022/09/24 09:21:15;;;;;;;2.8;2;;;;;;;17.46;64.12695;934.5128;;;;
2022/09/24 09:23:40;;;;;;;2;1.8;;;;;;;17.73;62.50684;934.5795;;;;
2022/09/24 09:26:05;;;;;;;2.4;2.1;;;;;;;18.07;60.67383;934.5894;;;;
2022/09/24 09:28:31;;;;;;;2.3;2.1;;;;;;;18.45;58.99316;934.4881;;;;
2022/09/24 09:30:57;;;;;;;2.8;2.3;;;;;;;18.73;58.3916;934.4748;;;;
2022/09/24 09:33:21;;;;;;;2.9;2.1;;;;;;;18.81;59.75195;934.5126;;;;
2022/09/24 09:35:47;;;;;;;2.9;2;;;;;;;18.71;59.0625;934.5496;;;;
2022/09/24 09:38:17;;;;;;;3.4;2.1;;;;;;;18.8;58.22656;934.5533;;;;
2022/09/24 09:40:44;;;;;;;2.1;1.7;;;;;;;18.65;58.60254;934.5728;;;;
2022/09/24 09:43:10;;;;;;;1.8;1.7;;;;;;;18.46;59.4248;934.4734;;;;
2022/09/24 09:45:38;;;;;;;3.5;1.8;;;;;;;17.77;61.29297;934.4199;;;;
2022/09/24 09:48:05;;;;;;;1.7;1.6;;;;;;;17.47;62.33008;934.4772;;;;
2022/09/24 09:50:30;;;;;;;2.8;2.1;;;;;;;17.29;63.5791;934.4866;;;;
2022/09/24 09:52:58;;;;;;;2.5;2.2;;;;;;;17.21;63.49902;934.5172;;;;
2022/09/24 09:55:28;;;;;;;2.4;1.8;;;;;;;17.13;64.02148;934.4841;;;;
2022/09/24 09:57:54;;;;;;;2.1;1.9;;;;;;;17.04;63.78809;934.5432;;;;
2022/09/24 10:00:24;;;;;;;4.2;2.6;;;;;;;16.85;66.19336;934.5211;;;;
2022/09/24 10:02:49;;;;;;;4.2;2.3;;;;;;;16.68;68.08984;934.5074;;;;
2022/09/24 10:05:20;;;;;;;3.3;2.3;;;;;;;16.79;67.80664;934.4031;;;;
2022/09/24 10:07:52;;;;;;;3.5;2.3;;;;;;;17.08;66.78418;934.4039;;;;
2022/09/24 10:10:17;;;;;;;2.8;2;;;;;;;17.38;65.4834;934.5064;;;;
2022/09/24 10:12:42;;;;;;;3.1;2.2;;;;;;;17.4;66.1377;934.3867;;;;
2022/09/24 10:15:14;;;;;;;4.3;2;;;;;;;17.84;65.37988;934.4402;;;;
2022/09/24 10:17:44;;;;;;;2.5;2.3;;;;;;;17.97;64.35352;934.3572;;;;
2022/09/24 10:20:12;;;;;;;3.5;2.1;;;;;;;18.14;65.07422;934.3508;;;;
2022/09/24 10:22:37;;;;;;;3.1;2.4;;;;;;;18.31;64.6123;934.3295;;;;
2022/09/24 10:25:02;;;;;;;3.3;2.7;;;;;;;18.43;64.08203;934.3333;;;;
2022/09/24 10:27:27;;;;;;;3.5;2.2;;;;;;;18.8;62.72949;934.3597;;;;
2022/09/24 10:32:20;;;;;;;3.1;2.1;;;;;;;18.89;60.32031;934.3116;;;;
2022/09/24 10:34:48;;;;;;;2.9;2;;;;;;;18.38;63.49414;934.2697;;;;
2022/09/24 10:37:13;;;;;;;2.9;2.2;;;;;;;18.28;64.79199;934.2612;;;;
2022/09/24 10:39:38;;;;;;;2.8;2.1;;;;;;;18.53;63.3418;934.2756;;;;
2022/09/24 10:42:04;;;;;;;3.1;2.2;;;;;;;18.86;62.17871;934.2542;;;;
2022/09/24 10:44:30;;;;;;;2.7;2.1;;;;;;;18.96;62.6709;934.2619;;;;
2022/09/24 10:46:58;;;;;;;4.9;2.6;;;;;;;18.2;65.91992;934.2;;;;
2022/09/24 10:49:23;;;;;;;3.2;2.2;;;;;;;17.94;65.66113;934.2442;;;;
2022/09/24 10:51:48;;;;;;;2.4;2.1;;;;;;;18.09;65.81055;934.215;;;;
2022/09/24 10:54:16;;;;;;;3;2;;;;;;;18.11;66.16211;934.1951;;;;
2022/09/24 10:56:44;;;;;;;2.6;1.9;;;;;;;18.35;64.62793;934.1522;;;;
2022/09/24 10:59:09;;;;;;;2.2;2;;;;;;;18.51;63.49023;934.1624;;;;
2022/09/24 11:01:37;;;;;;;2.9;2.2;;;;;;;18.68;62.85059;934.1874;;;;
2022/09/24 11:04:02;;;;;;;4.2;2.4;;;;;;;18.45;64.21387;934.1979;;;;
2022/09/24 11:06:27;;;;;;;3.5;2.1;;;;;;;18.67;62.69922;934.2109;;;;
2022/09/24 11:08:54;;;;;;;2.5;2;;;;;;;18.8;62.7168;934.2291;;;;
2022/09/24 11:11:19;;;;;;;2.3;1.8;;;;;;;18.75;62.86133;934.2143;;;;
2022/09/24 11:13:45;;;;;;;2.5;1.9;;;;;;;18.47;64.57715;934.1669;;;;
2022/09/24 11:16:10;;;;;;;2.8;1.8;;;;;;;18.31;65.94629;934.1646;;;;
2022/09/24 11:18:38;;;;;;;3.4;2;;;;;;;18.34;65.28906;934.1548;;;;
2022/09/24 11:21:05;;;;;;;2.6;1.9;;;;;;;18.42;65.00098;934.1778;;;;
2022/09/24 11:23:31;;;;;;;2.1;1.9;;;;;;;18.59;64.81348;934.1169;;;;
2022/09/24 11:26:23;;;;;;;2.4;1.9;;;;;;;18.65;63.5;934.1292;;;;
2022/09/24 11:28:48;;;;;;;2.6;2.1;;;;;;;18.85;63.39941;934.2216;;;;
2022/09/24 11:31:13;;;;;;;3.4;2.4;;;;;;;18.96;62.63574;934.2086;;;;
2022/09/24 11:33:41;;;;;;;2.1;1.8;;;;;;;18.63;64.97266;934.1742;;;;
2022/09/24 11:36:06;;;;;;;2.6;1.8;;;;;;;18.67;62.55859;934.1384;;;;
2022/09/24 11:38:35;;;;;;;2.2;1.7;;;;;;;18.33;65.24316;934.142;;;;
2022/09/24 11:41:01;;;;;;;4.7;2;;;;;;;18.48;65.04297;934.1795;;;;
2022/09/24 11:43:30;;;;;;;1.9;1.8;;;;;;;18.07;66.99316;934.122;;;;
2022/09/24 11:45:54;;;;;;;2.4;2.1;;;;;;;18.32;65.66016;934.0594;;;;
2022/09/24 11:48:21;;;;;;;2.1;1.7;;;;;;;18.51;65.04785;934.0005;;;;
2022/09/24 11:50:50;;;;;;;1.9;1.4;;;;;;;18.59;64.01172;934.0266;;;;
2022/09/24 11:53:15;;;;;;;2.1;1.5;;;;;;;18.6;65.10742;933.9398;;;;
2022/09/24 11:55:41;;;;;;;3.2;2.1;;;;;;;18.49;65.47363;933.9495;;;;
2022/09/24 11:58:10;;;;;;;3.3;1.9;;;;;;;18.62;64.66895;933.9387;;;;
2022/09/24 12:04:11;;;;;;;2.4;1.8;;;;;;;18.69;63.65625;933.899;;;;
2022/09/24 12:06:41;;;;;;;3.9;1.7;;;;;;;18.76;64.56152;933.9278;;;;
2022/09/24 12:09:05;;;;;;;2.5;2.2;;;;;;;18.88;63.86816;933.9327;;;;
2022/09/24 12:11:32;;;;;;;2;1.8;;;;;;;18.82;63.45313;933.9398;;;;
2022/09/24 12:16:35;;;;;;;2.4;1.7;;;;;;;19.18;63.37695;933.9077;;;;
2022/09/24 12:19:05;;;;;;;1.8;1.7;;;;;;;19.03;63.48145;933.8672;;;;
2022/09/24 12:21:30;;;;;;;2.1;1.7;;;;;;;18.96;63.125;933.8729;;;;
2022/09/24 12:24:04;;;;;;;1.7;1.5;;;;;;;18.84;64.29395;933.9226;;;;
2022/09/24 12:26:33;;;;;;;2;1.8;;;;;;;18.66;66.66406;933.8396;;;;
2022/09/24 12:33:47;;;;;;;2.4;1.9;;;;;;;18.81;65.77832;933.778;;;;
2022/09/24 12:36:12;;;;;;;2.3;1.8;;;;;;;18.62;65.5752;933.8079;;;;
2022/09/24 12:38:42;;;;;;;2.2;2;;;;;;;18.83;64.73438;933.7614;;;;
2022/09/24 12:41:07;;;;;;;2.2;1.7;;;;;;;18.67;66.5957;933.6981;;;;
2022/09/24 12:43:32;;;;;;;1.6;1.5;;;;;;;18.49;68.32324;933.6889;;;;
2022/09/24 12:45:58;;;;;;;1.8;1.5;;;;;;;18.22;69.0498;933.7324;;;;
2022/09/24 12:48:28;;;;;;;3.5;1.6;;;;;;;18.15;69.78125;933.7275;;;;
2022/09/24 12:50:53;;;;;;;2.3;1.8;;;;;;;18.31;68.44531;933.726;;;;
2022/09/24 12:53:23;;;;;;;1.6;1.5;;;;;;;18.03;69.29883;933.6984;;;;
2022/09/24 12:55:46;;;;;;;1.7;1.6;;;;;;;18.02;69.15723;933.6534;;;;
2022/09/24 12:58:13;;;;;;;2.5;1.6;;;;;;;18.21;68.74414;933.7147;;;;
2022/09/24 13:00:39;;;;;;;2.5;1.8;;;;;;;18.17;67.78711;933.6714;;;;
2022/09/24 13:03:08;;;;;;;2.9;1.7;;;;;;;18.15;69.15332;933.7009;;;;
2022/09/24 13:05:33;;;;;;;2.2;1.7;;;;;;;18.04;69.66016;933.6933;;;;
2022/09/24 13:08:00;;;;;;;2.5;1.8;;;;;;;17.87;69.14453;933.7122;;;;
2022/09/24 13:10:28;;;;;;;2.4;2;;;;;;;17.56;71.26563;933.6716;;;;
2022/09/24 13:12:54;;;;;;;2.2;2;;;;;;;17.53;72.09668;933.7222;;;;
2022/09/24 13:15:19;;;;;;;2.3;1.9;;;;;;;17.6;70.42578;933.701;;;;
2022/09/24 13:17:49;;;;;;;2.1;1.7;;;;;;;17.61;70.05664;933.6663;;;;
2022/09/24 13:20:24;;;;;;;3.4;1.8;;;;;;;17.53;71.76074;933.69;;;;
2022/09/24 13:22:54;;;;;;;2.9;2;;;;;;;17.43;71.6748;933.7085;;;;
2022/09/24 13:25:21;;;;;;;2;1.8;;;;;;;17.39;71.80664;933.6568;;;;
2022/09/24 13:27:46;;;;;;;2.1;1.9;;;;;;;17.38;72.34961;933.6733;;;;
2022/09/24 13:30:10;;;;;;;2.5;2;;;;;;;17.51;71.30469;933.7067;;;;
2022/09/24 13:32:35;;;;;;;2.5;2;;;;;;;17.56;70.44336;933.7287;;;;
2022/09/24 13:35:00;;;;;;;2.1;1.9;;;;;;;17.38;71.35449;933.6652;;;;
2022/09/24 13:37:26;;;;;;;2.5;1.6;;;;;;;17.39;71.80664;933.7285;;;;
2022/09/24 13:39:51;;;;;;;3.2;2;;;;;;;17.19;73.76758;933.6453;;;;
2022/09/24 13:42:21;;;;;;;3.1;2.3;;;;;;;17.16;74.89746;933.6903;;;;
2022/09/24 13:44:52;;;;;;;2.5;2.1;;;;;;;17.17;75.50391;933.7158;;;;
2022/09/24 13:47:17;;;;;;;3;2.1;;;;;;;17.18;75.60938;933.7026;;;;
2022/09/24 13:49:44;;;;;;;3.1;2.4;;;;;;;17.27;75.20605;933.6389;;;;
2022/09/24 13:52:11;;;;;;;2.5;2.1;;;;;;;17.42;74.93262;933.7764;;;;
2022/09/24 13:54:38;;;;;;;2.2;1.9;;;;;;;17.38;75.73633;933.741;;;;
2022/09/24 13:57:29;;;;;;;2.3;2.1;;;;;;;17.43;75.52539;933.7656;;;;
2022/09/24 13:59:58;;;;;;;2.7;2.5;;;;;;;17.14;77.28418;933.7374;;;;
2022/09/24 14:02:32;;;;;;;2.5;1.9;;;;;;;17.23;77.47461;933.7227;;;;
2022/09/24 14:04:57;;;;;;;2.5;2.1;;;;;;;17.32;76.47949;933.7205;;;;
2022/09/24 14:07:29;;;;;;;2.3;2.1;;;;;;;17.23;75.99023;933.7773;;;;
2022/09/24 14:09:54;;;;;;;3.5;2.3;;;;;;;17.33;76.33203;933.8007;;;;
2022/09/24 14:29:19;;;;;;;3.1;2.6;;;;;;;17.35;77.4834;933.7753;;;;
2022/09/24 14:31:45;;;;;;;3.3;2.8;;;;;;;17.08;79.23242;933.836;;;;
2022/09/24 14:34:09;;;;;;;3.4;2.9;;;;;;;17.12;79.61133;933.8022;;;;
2022/09/24 14:36:39;;;;;;;3.9;3.5;;;;;;;17.01;80.67871;933.8205;;;;
2022/09/24 14:39:04;;;;;;;4.8;3.3;;;;;;;17.09;80.12793;933.7955;;;;
2022/09/24 14:41:29;;;;;;;3.3;2.7;;;;;;;17.13;79.83301;933.8253;;;;
2022/09/24 14:43:56;;;;;;;3.2;2.9;;;;;;;17;80.37598;933.7523;;;;
2022/09/24 14:46:21;;;;;;;3.4;3;;;;;;;16.88;81.52344;933.8289;;;;
2022/09/24 14:48:46;;;;;;;3.2;2.8;;;;;;;16.86;81.52148;933.8447;;;;
2022/09/24 14:51:12;;;;;;;3.3;2.7;;;;;;;16.81;81.65039;933.8206;;;;
2022/09/24 14:53:38;;;;;;;3.2;2.6;;;;;;;16.72;82.09668;933.8281;;;;
2022/09/24 14:56:04;;;;;;;2.8;2.6;;;;;;;16.71;82.53516;933.8702;;;;
2022/09/24 14:58:30;;;;;;;3.2;2.9;;;;;;;16.61;82.80566;933.812;;;;
2022/09/24 15:00:57;;;;;;;3.6;3.1;;;;;;;16.59;83.21973;933.8463;;;;
2022/09/24 15:03:21;;;;;;;3.3;2.5;;;;;;;16.54;83.53516;933.8762;;;;
2022/09/24 15:05:46;;;;;;;4.3;3.5;;;;;;;16.33;84.71973;933.8738;;;;
2022/09/24 15:08:11;;;;;;;7.2;5.4;;;;;;;16.11;84.99023;933.9436;;;;
2022/09/24 15:10:38;;;;;;;10.6;7.3;;;;;;;;;;;;;
2022/09/24 15:13:02;;;;;;;6.3;4.6;;;;;;;;;;;;;
2022/09/24 15:15:30;;;;;;;6.5;5.2;;;;;;;;;;;;;
2022/09/24 15:17:55;;;;;;;13.8;10.3;;;;;;;;;;;;;
2022/09/24 15:20:20;;;;;;;12.9;9.6;;;;;;;;;;;;;
2022/09/24 15:22:45;;;;;;;5.4;4.1;;;;;;;;;;;;;
2022/09/24 15:25:11;;;;;;;7.5;4.6;;;;;;;;;;;;;
2022/09/24 15:27:36;;;;;;;8.8;5.5;;;;;;;;;;;;;
2022/09/24 15:30:03;;;;;;;7.7;5.5;;;;;;;;;;;;;
2022/09/24 15:32:27;;;;;;;5.9;4.4;;;;;;;;;;;;;
2022/09/24 15:34:55;;;;;;;4.7;3.7;;;;;;;;;;;;;
2022/09/24 15:37:18;;;;;;;6;4;;;;;;;;;;;;;
2022/09/24 15:39:48;;;;;;;6.4;4.3;;;;;;;;;;;;;
2022/09/24 15:42:11;;;;;;;4.4;3.8;;;;;;;;;;;;;
2022/09/24 15:44:39;;;;;;;7.7;5.1;;;;;;;;;;;;;
2022/09/24 15:47:04;;;;;;;7.1;5.3;;;;;;;;;;;;;
2022/09/24 15:49:30;;;;;;;6;4.3;;;;;;;;;;;;;
2022/09/24 15:51:55;;;;;;;5.7;4;;;;;;;;;;;;;
2022/09/24 15:54:20;;;;;;;4.9;4.4;;;;;;;;;;;;;
2022/09/24 15:56:50;;;;;;;3.8;3;;;;;;;;;;;;;
2022/09/24 15:59:10;;;;;;;4.8;4.2;;;;;;;;;;;;;
2022/09/24 16:01:38;;;;;;;5.2;3.9;;;;;;;;;;;;;
2022/09/24 16:04:03;;;;;;;3.2;2.9;;;;;;;;;;;;;
2022/09/24 16:06:28;;;;;;;3.2;2.9;;;;;;;;;;;;;
2022/09/24 16:08:53;;;;;;;3.3;2.8;;;;;;;;;;;;;
2022/09/24 16:11:20;;;;;;;4.1;2.9;;;;;;;;;;;;;
2022/09/24 16:13:45;;;;;;;3.4;2.7;;;;;;;;;;;;;
2022/09/24 16:16:10;;;;;;;3.2;2.9;;;;;;;;;;;;;
2022/09/24 16:18:38;;;;;;;2.7;2.5;;;;;;;;;;;;;
2022/09/24 16:21:00;;;;;;;3;2.4;;;;;;;;;;;;;
2022/09/24 16:23:26;;;;;;;2.5;2.1;;;;;;;;;;;;;
2022/09/24 16:25:51;;;;;;;2.3;2.1;;;;;;;;;;;;;
2022/09/24 16:28:16;;;;;;;2.3;2.1;;;;;;;;;;;;;
2022/09/24 16:30:42;;;;;;;2.8;2.3;;;;;;;;;;;;;
2022/09/24 16:33:08;;;;;;;2.7;2.1;;;;;;;;;;;;;
2022/09/24 16:35:33;;;;;;;3;2.2;;;;;;;;;;;;;
2022/09/24 16:38:00;;;;;;;2.4;2.2;;;;;;;;;;;;;
2022/09/24 16:40:25;;;;;;;2.2;2;;;;;;;;;;;;;
2022/09/24 16:42:51;;;;;;;2.1;1.9;;;;;;;;;;;;;
2022/09/24 16:45:16;;;;;;;2.2;2;;;;;;;;;;;;;
2022/09/24 16:47:46;;;;;;;3.4;3.1;;;;;;;;;;;;;
2022/09/24 16:50:15;;;;;;;4.3;3.9;;;;;;;;;;;;;